Time;durP1;ratioP1;P1;durP2;ratioP2;P2;SDS_P1;SDS_P2;PMS_P1;PMS_P2;Temp;Humidity;BMP_temperature;BMP_pressure;BME280_temperature;BME280_humidity;BME280_pressure;Samples;Min_cycle;Max_cycle;Signal;HPM_P1;HPM_P2
2022/07/02 00:00:15;;;;;;;;;;;;;;;12.11;100.00;96371.69;10460957;28;1852;-75
2022/07/02 00:05:20;;;;;;;;;;;;;;;12.07;100.00;96373.28;10471896;28;1964;-76
2022/07/02 00:10:24;;;;;;;;;;;;;;;12.06;100.00;96371.69;10471054;28;1862;-76
2022/07/02 00:15:28;;;;;;;;;;;;;;;12.08;100.00;96367.63;10469975;28;1819;-77
2022/07/02 00:20:32;;;;;;;;;;;;;;;12.17;100.00;96376.00;10482058;28;1855;-76
2022/07/02 00:25:36;;;;;;;;;;;;;;;12.00;100.00;96378.13;10484445;28;1910;-76
2022/07/02 00:30:40;;;;;;;;;;;;;;;11.87;100.00;96374.88;10482153;28;1823;-77
2022/07/02 00:35:44;;;;;;;;;;;;;;;11.97;100.00;96379.50;10477391;28;1925;-75
2022/07/02 00:40:47;;;;;;;;;;;;;;;11.90;100.00;96373.56;10489887;28;2120;-77
2022/07/02 00:45:51;;;;;;;;;;;;;;;12.00;100.00;96375.44;10475160;28;2535;-77
2022/07/02 00:50:55;;;;;;;;;;;;;;;11.95;100.00;96378.13;10480551;28;1833;-76
2022/07/02 00:55:58;;;;;;;;;;;;;;;11.82;100.00;96382.94;10475050;28;1839;-75
2022/07/02 01:01:02;;;;;;;;;;;;;;;11.81;100.00;96375.94;10476138;28;2295;-77
2022/07/02 01:06:05;;;;;;;;;;;;;;;11.75;100.00;96379.69;10472705;28;2023;-77
2022/07/02 01:11:10;;;;;;;;;;;;;;;11.72;100.00;96382.09;10472002;28;1850;-76
2022/07/02 01:16:17;;;;;;;;;;;12.80;99.90;;;11.70;100.00;96368.06;10499699;28;1864;-76
2022/07/02 01:21:22;;;;;;;;;;;12.70;99.90;;;11.67;100.00;96364.03;10493519;28;1764;-77
2022/07/02 01:26:38;;;;;;;;;;;;;;;11.63;100.00;96362.94;10469471;28;1918;-76
2022/07/02 01:31:45;;;;;;;;;;;;;;;11.59;100.00;96356.50;10462834;28;1966;-77
2022/07/02 01:36:49;;;;;;;;;;;;;;;11.60;100.00;96347.34;10475421;28;2009;-77
2022/07/02 01:41:52;;;;;;;;;;;12.70;99.90;;;11.61;100.00;96344.38;10469318;28;2066;-77
2022/07/02 01:46:56;;;;;;;;;;;;;;;11.56;100.00;96348.94;10476266;28;1992;-77
2022/07/02 01:51:58;;;;;;;;;;;12.80;99.90;;;11.58;100.00;96344.09;10474861;28;2124;-77
2022/07/02 01:57:01;;;;;;;;;;;;;;;11.59;100.00;96333.06;10478066;28;2318;-77
2022/07/02 02:02:05;;;;;;;;;;;;;;;11.60;100.00;96347.34;10477318;28;1960;-77
2022/07/02 02:07:08;;;;;;;;;;;12.20;99.90;;;11.54;100.00;96353.78;10470800;28;1973;-77
2022/07/02 02:12:11;;;;;;;;;;;11.70;99.90;;;11.55;100.00;96352.69;10477886;28;2009;-76
2022/07/02 02:17:13;;;;;;;;;;;12.60;99.90;;;11.60;100.00;96352.72;10469070;28;1958;-76
2022/07/02 02:22:16;;;;;;;;;;;12.50;99.90;;;11.50;100.00;96350.00;10469662;28;1939;-76
2022/07/02 02:27:20;;;;;;;;;;;;;;;11.55;100.00;96355.41;10475912;28;2083;-76
2022/07/02 02:32:22;;;;;;;;;;;12.90;99.90;;;11.51;100.00;96354.28;10470743;28;1934;-76
2022/07/02 02:37:27;;;;;;;;;;;;;;;11.48;100.00;96354.84;10471153;28;1943;-76
2022/07/02 02:42:30;;;;;;;;;;;;;;;11.49;100.00;96357.25;10464991;28;1979;-76
2022/07/02 02:47:33;;;;;;;;;;;;;;;11.40;100.00;96364.25;10469516;28;1980;-76
2022/07/02 02:52:37;;;;;;;;;;;;;;;11.28;100.00;96364.47;10469913;28;1896;-77
2022/07/02 02:57:40;;;;;;;;;;;;;;;11.32;100.00;96367.41;10470227;28;2015;-76
2022/07/02 03:02:43;;;;;;;;;;;;;;;11.27;100.00;96364.72;10471095;28;1982;-76
2022/07/02 03:07:46;;;;;;;;;;;;;;;11.19;100.00;96368.72;10467078;28;1979;-76
2022/07/02 03:12:50;;;;;;;;;;;;;;;11.25;100.00;96367.66;10470024;28;1947;-76
2022/07/02 03:17:53;;;;;;;;;;;;;;;11.28;100.00;96380.63;10471876;28;1927;-75
2022/07/02 03:22:56;;;;;;;;;;;;;;;11.23;100.00;96385.97;10481896;28;1942;-76
2022/07/02 03:28:00;;;;;;;;;;;;;;;11.34;100.00;96382.25;10465592;28;1939;-76
2022/07/02 03:33:03;;;;;;;;;;;;;;;11.36;100.00;96382.78;10471606;28;2054;-75
2022/07/02 03:38:06;;;;;;;;;;;;;;;11.42;100.00;96389.00;10471675;28;1931;-77
2022/07/02 03:43:09;;;;;;;;;;;;;;;11.50;100.00;96391.19;10462663;28;1884;-76
2022/07/02 03:48:13;;;;;;;;;;;;;;;11.59;100.00;96389.63;10471382;28;1987;-77
2022/07/02 03:53:16;;;;;;;;;;;;;;;11.73;100.00;96391.81;10478709;28;2022;-76
2022/07/02 03:58:19;;;;;;;;;;;;;;;11.82;100.00;96398.31;10470477;28;1947;-76
2022/07/02 04:03:22;;;;;;;;;;;12.60;99.90;;;12.02;100.00;96392.94;10484979;28;1900;-75
2022/07/02 04:08:26;;;;;;;;;;;;;;;11.94;100.00;96396.19;10472915;28;1918;-76
2022/07/02 04:13:28;;;;;;;;;;;12.80;99.90;;;12.14;100.00;96390.00;10471934;28;2002;-76
2022/07/02 04:18:34;;;;;;;;;;;;;;;12.35;100.00;96388.16;10471593;28;1919;-76
2022/07/02 04:23:37;;;;;;;;;;;;;;;12.47;100.00;96385.16;10476024;28;1926;-76
2022/07/02 04:28:40;;;;;;;;;;;;;;;12.64;100.00;96383.81;10476505;28;1906;-76
2022/07/02 04:33:44;;;;;;;;;;;;;;;12.90;100.00;96376.47;10482117;28;2032;-76
2022/07/02 04:38:48;;;;;;;;;;;;;;;13.09;100.00;96384.00;10483177;28;2187;-76
2022/07/02 04:43:51;;;;;;;;;;;;;;;13.38;100.00;96378.81;10478743;28;1954;-75
2022/07/02 04:48:55;;;;;;;;;;;;;;;13.56;100.00;96383.59;10480310;28;1985;-75
2022/07/02 04:53:58;;;;;;;;;;;14.20;99.90;;;13.88;100.00;96375.03;10480706;28;1864;-77
2022/07/02 04:59:02;;;;;;;;;;;;;;;14.20;100.00;96371.03;10482987;28;1963;-75
2022/07/02 05:04:06;;;;;;;;;;;;;;;14.48;100.00;96377.59;10478214;28;2057;-74
2022/07/02 05:09:09;;;;;;;;;;;;;;;14.47;100.00;96376.00;10475966;28;1918;-76
2022/07/02 05:14:13;;;;;;;;;;;;;;;14.39;100.00;96373.88;10472246;28;2028;-76
2022/07/02 05:19:16;;;;;;;;;;;;;;;14.28;100.00;96386.66;10477082;28;2010;-75
2022/07/02 05:24:20;;;;;;;;;;;;;;;14.50;100.00;96381.63;10486504;28;1976;-75
2022/07/02 05:29:23;;;;;;;;;;;15.50;99.90;;;14.52;100.00;96384.06;10497561;28;2054;-76
2022/07/02 05:34:27;;;;;;;;;;;15.30;99.90;;;14.64;100.00;96381.81;10496118;28;1943;-76
2022/07/02 05:39:30;;;;;;;;;;;;;;;14.30;100.00;96377.16;10477959;28;1986;-77
2022/07/02 05:44:33;;;;;;;;;;;15.30;99.90;;;14.80;100.00;96383.25;10476179;28;1973;-76
2022/07/02 05:49:36;;;;;;;;;;;15.40;99.90;;;14.94;100.00;96386.09;10503996;28;1869;-75
2022/07/02 05:54:39;;;;;;;;;;;;;;;15.05;99.93;96384.91;10480284;28;1912;-76
2022/07/02 05:59:44;;;;;;;;;;;;;;;14.78;100.00;96388.16;10470672;28;2005;-75
2022/07/02 06:04:47;;;;;;;;;;;15.30;99.90;;;15.23;100.00;96382.56;10473811;28;1918;-75
2022/07/02 06:09:50;;;;;;;;;;;15.80;99.90;;;15.81;100.00;96387.84;10475122;28;1953;-77
2022/07/02 06:14:53;;;;;;;;;;;16.30;99.90;;;15.36;100.00;96400.81;10473794;28;2070;-76
2022/07/02 06:19:56;;;;;;;;;;;16.40;99.90;;;15.05;100.00;96390.31;10479336;28;1991;-75
2022/07/02 06:24:59;;;;;;;;;;;;;;;15.20;100.00;96394.75;10474751;28;1973;-76
2022/07/02 06:30:02;;;;;;;;;;;16.30;99.90;;;15.35;100.00;96391.91;10474053;28;1935;-77
2022/07/02 06:35:05;;;;;;;;;;;16.30;99.90;;;15.51;100.00;96397.94;10473233;28;1903;-75
2022/07/02 06:40:08;;;;;;;;;;;16.30;99.90;;;16.45;98.10;96395.28;10475603;28;1929;-77
2022/07/02 06:45:11;;;;;;;;;;;17.00;99.90;;;16.97;99.63;96395.25;10470992;28;2149;-77
2022/07/02 06:50:18;;;;;;;;;;;17.30;99.90;;;16.74;95.53;96395.13;10472417;28;1895;-75
2022/07/02 06:55:21;;;;;;;;;;;18.00;99.90;;;16.60;96.71;96391.50;10470431;28;1970;-75
2022/07/02 07:00:24;;;;;;;;;;;17.70;99.90;;;16.98;98.89;96391.44;10472057;28;1978;-75
2022/07/02 07:05:28;;;;;;;;;;;17.70;99.90;;;17.40;94.78;96392.28;10476101;28;1977;-76
2022/07/02 07:10:32;;;;;;;;;;;18.00;99.90;;;17.18;96.61;96391.09;10472318;28;2104;-77
2022/07/02 07:15:36;;;;;;;;;;;17.80;99.90;;;17.69;90.27;96387.34;10479324;28;1942;-77
2022/07/02 07:20:39;;;;;;;;;;;18.30;99.90;;;17.43;87.43;96388.97;10473195;28;1989;-75
2022/07/02 07:25:43;;;;;;;;;;;;;;;18.03;85.92;96391.56;10465166;28;1913;-71
2022/07/02 07:30:48;;;;;;;;;;;;;;;17.89;86.72;96383.44;10469594;28;1896;-72
2022/07/02 07:35:52;;;;;;;;;;;;;;;18.14;85.39;96387.50;10467413;28;2056;-73
2022/07/02 07:40:55;;;;;;;;;;;;;;;17.67;87.37;96384.13;10474649;28;1953;-71
2022/07/02 07:45:59;;;;;;;;;;;;;;;18.06;84.45;96380.03;10466463;28;1934;-71
2022/07/02 07:51:05;;;;;;;;;;;;;;;18.14;81.46;96378.53;10475145;28;1955;-72
2022/07/02 07:56:09;;;;;;;;;;;;;;;18.67;80.98;96375.91;10470008;28;1962;-71
2022/07/02 08:01:12;;;;;;;;;;;;;;;18.89;79.78;96375.91;10468848;28;1943;-71
2022/07/02 08:06:16;;;;;;;;;;;;;;;18.88;76.82;96378.91;10464530;28;2041;-72
2022/07/02 08:11:20;;;;;;;;;;;;;;;19.41;74.21;96378.06;10459051;28;2034;-76
2022/07/02 08:16:23;;;;;;;;;;;;;;;19.23;71.13;96368.22;10470807;28;1938;-75
2022/07/02 08:21:26;;;;;;;;;;;;;;;19.42;70.62;96376.94;10471904;28;2360;-74
2022/07/02 08:26:30;;;;;;;;;;;;;;;19.56;70.91;96369.44;10465994;28;1981;-74
2022/07/02 08:31:38;;;;;;;;;;;;;;;19.72;71.80;96364.38;10468253;28;1898;-76
2022/07/02 08:36:41;;;;;;;;;;;;;;;19.62;72.96;96373.66;10462472;28;2078;-74
2022/07/02 08:41:46;;;;;;;;;;;;;;;19.21;70.33;96370.44;10473225;28;1950;-77
2022/07/02 08:46:50;;;;;;;;;;;;;;;18.97;71.04;96365.38;10477783;28;1898;-76
2022/07/02 08:52:00;;;;;;;;;;;;;;;18.55;69.73;96362.03;10479331;28;1959;-74
2022/07/02 08:57:04;;;;;;;;;;;;;;;19.14;68.03;96354.53;10473141;28;1985;-75
2022/07/02 09:02:07;;;;;;;;;;;;;;;19.06;69.96;96352.56;10478566;28;1895;-75
2022/07/02 09:07:10;;;;;;;;;;;;;;;19.58;70.02;96344.59;10480113;28;1975;-74
2022/07/02 09:12:13;;;;;;;;;;;;;;;19.83;69.41;96343.84;10477559;28;1837;-74
2022/07/02 09:17:17;;;;;;;;;;;;;;;19.98;69.06;96340.69;10482495;28;1938;-75
2022/07/02 09:22:21;;;;;;;;;;;;;;;19.21;69.67;96343.97;10484704;28;1914;-72
2022/07/02 09:27:25;;;;;;;;;;;;;;;18.78;67.85;96343.78;10471804;28;1918;-73
2022/07/02 09:32:29;;;;;;;;;;;;;;;19.36;66.79;96334.59;10474984;28;1973;-74
2022/07/02 09:37:34;;;;;;;;;;;;;;;19.69;63.62;96332.28;10484719;28;1900;-71
2022/07/02 09:42:37;;;;;;;;;;;;;;;19.78;62.28;96327.63;10474341;28;2114;-71
2022/07/02 09:47:41;;;;;;;;;;;;;;;20.17;61.16;96312.28;10474432;28;2096;-70
2022/07/02 09:52:45;;;;;;;;;;;;;;;20.34;60.82;96305.97;10473181;28;1946;-70
2022/07/02 09:57:48;;;;;;;;;;;;;;;20.44;56.47;96306.47;10473777;28;1871;-71
2022/07/02 10:02:52;;;;;;;;;;;;;;;20.11;55.07;96316.28;10479533;28;1931;-72
2022/07/02 10:07:56;;;;;;;;;;;;;;;20.01;57.64;96300.22;10489242;28;1996;-71
2022/07/02 10:12:59;;;;;;;;;;;;;;;20.43;54.72;96295.88;10467615;28;1967;-70
2022/07/02 10:18:03;;;;;;;;;;;;;;;20.27;55.47;96279.16;10474426;28;1915;-76
2022/07/02 10:23:06;;;;;;;;;;;;;;;20.65;54.69;96286.69;10474664;28;1911;-73
2022/07/02 10:28:11;;;;;;;;;;;;;;;20.42;54.78;96289.59;10473094;28;1975;-75
2022/07/02 10:33:14;;;;;;;;;;;;;;;20.82;55.33;96283.91;10473479;28;2009;-76
2022/07/02 10:38:18;;;;;;;;;;;;;;;21.31;52.59;96266.03;10476431;28;1962;-74
2022/07/02 10:43:22;;;;;;;;;;;;;;;21.21;50.86;96277.31;10473296;28;2047;-75
2022/07/02 10:48:25;;;;;;;;;;;;;;;21.67;49.61;96278.34;10484615;28;2011;-76
2022/07/02 10:53:29;;;;;;;;;;;;;;;22.24;48.27;96263.25;10474578;28;1919;-75
2022/07/02 10:58:34;;;;;;;;;;;;;;;21.92;48.98;96279.28;10470316;28;1963;-76
2022/07/02 11:03:38;;;;;;;;;;;;;;;22.31;47.18;96261.56;10463496;28;2001;-76
2022/07/02 11:08:43;;;;;;;;;;;;;;;22.40;47.98;96258.78;10465259;28;1985;-76
2022/07/02 11:13:47;;;;;;;;;;;;;;;22.12;46.12;96244.84;10470546;28;1946;-77
2022/07/02 11:18:51;;;;;;;;;;;;;;;22.27;47.11;96236.03;10471621;28;1822;-75
2022/07/02 11:23:55;;;;;;;;;;;;;;;21.78;47.08;96224.03;10469379;28;1847;-74
2022/07/02 11:28:59;;;;;;;;;;;;;;;21.90;47.48;96210.41;10468663;28;1928;-75
2022/07/02 11:34:02;;;;;;;;;;;;;;;21.94;44.20;96197.63;10468582;28;2327;-75
2022/07/02 11:39:06;;;;;;;;;;;;;;;21.35;44.26;96195.06;10464038;28;1847;-73
2022/07/02 11:44:11;;;;;;;;;;;;;;;21.37;44.59;96200.97;10469557;28;1794;-72
2022/07/02 11:49:14;;;;;;;;;;;;;;;21.34;44.48;96193.47;10471603;28;1910;-70
2022/07/02 11:54:17;;;;;;;;;;;;;;;21.74;44.51;96182.03;10460087;28;1929;-73
2022/07/02 11:59:21;;;;;;;;;;;;;;;21.99;43.11;96172.78;10469827;28;1804;-74
2022/07/02 12:04:24;;;;;;;;;;;;;;;22.05;40.44;96160.50;10471475;28;1790;-74
2022/07/02 12:09:27;;;;;;;;;;;;;;;21.81;39.45;96160.41;10466853;28;1917;-75
2022/07/02 12:14:37;;;;;;;;;;;;;;;21.99;39.67;96170.06;10474448;28;1812;-74
2022/07/02 12:19:41;;;;;;;;;;;;;;;22.73;39.63;96157.34;10485484;28;1837;-74
2022/07/02 12:24:44;;;;;;;;;;;;;;;22.58;37.04;96161.53;10478239;28;1780;-74
2022/07/02 12:29:56;;;;;;;;;;;;;;;22.75;38.04;96160.53;10480964;28;2033;-75
2022/07/02 12:35:00;;;;;;;;;;;;;;;22.52;37.85;96160.19;10477463;28;2252;-74
2022/07/02 12:40:03;;;;;;;;;;;;;;;22.43;38.21;96156.72;10486014;28;1844;-75
2022/07/02 12:45:07;;;;;;;;;;;;;;;22.49;37.51;96146.34;10481267;28;1808;-75
2022/07/02 12:50:10;;;;;;;;;;;;;;;22.77;38.94;96132.78;10482531;28;1909;-74
2022/07/02 12:55:14;;;;;;;;;;;;;;;22.86;38.80;96128.00;10480883;28;1854;-73
2022/07/02 13:00:17;;;;;;;;;;;;;;;23.03;39.11;96122.28;10479904;28;1883;-75
2022/07/02 13:05:21;;;;;;;;;;;;;;;22.81;39.63;96122.72;10479950;28;1996;-75
2022/07/02 13:10:24;;;;;;;;;;;;;;;22.71;40.25;96112.22;10482647;28;1984;-75
2022/07/02 13:15:28;;;;;;;;;;;;;;;22.95;40.45;96103.22;10476792;28;1869;-73
2022/07/02 13:20:33;;;;;;;;;;;;;;;23.29;40.33;96099.97;10481260;28;1837;-75
2022/07/02 13:25:37;;;;;;;;;;;;;;;23.44;39.83;96095.66;10473148;28;1791;-74
2022/07/02 13:30:41;;;;;;;;;;;;;;;23.19;40.92;96090.25;10479448;28;1917;-74
2022/07/02 13:35:44;;;;;;;;;;;;;;;23.46;40.46;96087.88;10479005;28;1758;-76
2022/07/02 13:40:47;;;;;;;;;;;;;;;23.32;40.47;96102.00;10477543;28;1864;-73
2022/07/02 13:45:51;;;;;;;;;;;;;;;23.04;40.86;96087.44;10489302;28;1937;-76
2022/07/02 13:50:55;;;;;;;;;;;;;;;23.09;41.02;96077.00;10493776;28;2067;-74
2022/07/02 13:55:59;;;;;;;;;;;;;;;23.56;41.13;96073.66;10477726;28;1888;-74
2022/07/02 14:01:02;;;;;;;;;;;;;;;23.56;40.99;96075.63;10482515;28;1833;-75
2022/07/02 14:06:06;;;;;;;;;;;;;;;23.42;41.32;96071.34;10482440;28;1812;-75
2022/07/02 14:11:11;;;;;;;;;;;;;;;23.53;41.91;96074.34;10479269;28;1985;-75
2022/07/02 14:16:14;;;;;;;;;;;;;;;24.05;41.32;96076.19;10475856;28;1888;-75
2022/07/02 14:21:18;;;;;;;;;;;;;;;24.36;41.23;96074.63;10478480;28;1937;-75
2022/07/02 14:26:22;;;;;;;;;;;;;;;24.20;41.01;96074.59;10470702;28;1842;-75
2022/07/02 14:31:26;;;;;;;;;;;;;;;24.01;41.33;96064.31;10481184;28;1969;-75
2022/07/02 14:36:29;;;;;;;;;;;;;;;23.68;42.29;96029.75;10478917;28;1867;-74
2022/07/02 14:41:33;;;;;;;;;;;;;;;23.45;43.03;96053.38;10480249;28;1831;-75
2022/07/02 14:46:36;;;;;;;;;;;;;;;23.74;41.95;96035.78;10474798;28;1736;-75
2022/07/02 14:51:40;;;;;;;;;;;;;;;23.96;41.56;96040.66;10487328;28;1998;-75
2022/07/02 14:56:43;;;;;;;;;;;;;;;23.64;41.97;96025.28;10482288;28;1810;-74
2022/07/02 15:01:47;;;;;;;;;;;;;;;24.10;41.49;96022.94;10482870;28;1802;-74
2022/07/02 15:06:50;;;;;;;;;;;;;;;23.86;41.30;96023.94;10479063;28;1952;-75
2022/07/02 15:11:54;;;;;;;;;;;;;;;24.17;41.47;96023.91;10473712;28;1823;-75
2022/07/02 15:16:58;;;;;;;;;;;;;;;23.87;41.35;96023.56;10477777;28;1814;-75
2022/07/02 15:22:02;;;;;;;;;;;;;;;24.14;41.23;96010.91;10469816;28;1952;-76
2022/07/02 15:27:06;;;;;;;;;;;;;;;23.98;41.48;96032.06;10469200;28;1918;-75
2022/07/02 15:32:09;;;;;;;;;;;;;;;23.90;42.08;96014.63;10468708;28;1879;-75
2022/07/02 15:37:13;;;;;;;;;;;;;;;24.35;41.33;95998.84;10472263;28;1912;-74
2022/07/02 15:42:17;;;;;;;;;;;;;;;24.17;41.22;96001.94;10472967;28;1957;-74
2022/07/02 15:47:21;;;;;;;;;;;;;;;24.00;41.74;95992.13;10473233;28;1909;-76
2022/07/02 15:52:25;;;;;;;;;;;;;;;23.90;42.18;95994.59;10475528;28;1829;-76
2022/07/02 15:57:28;;;;;;;;;;;;;;;24.27;41.77;95976.69;10469142;28;1930;-75
2022/07/02 16:02:32;;;;;;;;;;;;;;;24.15;41.99;95978.75;10465129;28;2079;-75
2022/07/02 16:07:35;;;;;;;;;;;;;;;24.07;42.45;95968.75;10469556;28;1898;-74
2022/07/02 16:12:39;;;;;;;;;;;;;;;23.56;43.53;95972.16;10463517;28;1978;-74
2022/07/02 16:17:42;;;;;;;;;;;;;;;23.58;43.33;95977.28;10468204;28;1759;-73
2022/07/02 16:22:46;;;;;;;;;;;;;;;23.36;44.27;95963.00;10470743;28;1877;-74
2022/07/02 16:27:49;;;;;;;;;;;;;;;23.14;44.92;95950.66;10468612;28;1914;-75
2022/07/02 16:32:53;;;;;;;;;;;;;;;22.96;45.39;95949.34;10472527;28;1821;-74
2022/07/02 16:37:57;;;;;;;;;;;;;;;22.63;45.26;95942.13;10472829;28;1854;-74
2022/07/02 16:43:01;;;;;;;;;;;;;;;22.61;45.66;95933.47;10468765;28;1713;-75
2022/07/02 16:48:05;;;;;;;;;;;;;;;22.63;46.09;95942.13;10467299;28;1967;-75
2022/07/02 16:53:09;;;;;;;;;;;;;;;22.48;46.18;95940.13;10480723;28;1798;-74
2022/07/02 16:58:13;;;;;;;;;;;;;;;22.36;46.19;95938.19;10473797;28;1876;-75
2022/07/02 17:03:17;;;;;;;;;;;;;;;22.42;46.90;95936.03;10486958;28;1853;-76
2022/07/02 17:08:20;;;;;;;;;;;;;;;22.29;46.78;95932.50;10478536;28;1981;-75
2022/07/02 17:13:24;;;;;;;;;;;;;;;22.02;47.03;95939.47;10477585;28;1801;-74
2022/07/02 17:18:28;;;;;;;;;;;;;;;21.91;47.73;95937.53;10472866;28;1884;-75
2022/07/02 17:23:32;;;;;;;;;;;;;;;21.91;48.20;95927.38;10491144;28;1818;-77
2022/07/02 17:28:35;;;;;;;;;;;;;;;21.88;48.46;95928.03;10511327;28;1900;-75
2022/07/02 17:33:39;;;;;;;;;;;;;;;21.74;48.48;95913.91;10511981;28;1822;-76
2022/07/02 17:38:42;;;;;;;;;;;;;;;21.63;48.77;95926.44;10479729;28;1946;-74
2022/07/02 17:43:45;;;;;;;;;;;;;;;21.57;49.27;95917.69;10473204;28;1804;-71
2022/07/02 17:48:49;;;;;;;;;;;;;;;21.46;49.43;95908.31;10475365;28;1914;-72
2022/07/02 17:53:52;;;;;;;;;;;;;;;21.36;50.00;95906.81;10482588;28;1814;-73
2022/07/02 17:58:57;;;;;;;;;;;;;;;21.28;50.86;95904.94;10491380;28;1859;-74
2022/07/02 18:04:00;;;;;;;;;;;;;;;21.24;50.26;95910.28;10476158;28;1842;-74
2022/07/02 18:09:03;;;;;;;;;;;;;;;21.13;51.04;95895.47;10480372;28;1910;-73
2022/07/02 18:14:07;;;;;;;;;;;;;;;21.11;51.03;95902.38;10477754;28;1887;-74
2022/07/02 18:19:10;;;;;;;;;;;;;;;20.97;50.98;95908.16;10473517;28;1866;-72
2022/07/02 18:24:13;;;;;;;;;;;;;;;20.84;51.47;95901.84;10473219;28;1836;-74
2022/07/02 18:29:17;;;;;;;;;;;;;;;20.69;52.11;95905.22;10472496;28;2216;-75
2022/07/02 18:34:20;;;;;;;;;;;;;;;20.58;52.25;95893.09;10475544;28;1931;-75
2022/07/02 18:39:23;;;;;;;;;;;;;;;20.50;51.84;95895.56;10473565;28;1782;-74
2022/07/02 18:44:27;;;;;;;;;;;;;;;20.32;52.19;95896.81;10471991;28;1841;-76
2022/07/02 18:49:30;;;;;;;;;;;;;;;20.13;53.29;95901.94;10473939;28;2023;-75
2022/07/02 18:54:34;;;;;;;;;;;;;;;19.98;54.07;95901.38;10474662;28;1881;-78
2022/07/02 18:59:37;;;;;;;;;;;;;;;19.90;54.69;95894.03;10474023;28;2212;-76
2022/07/02 19:04:41;;;;;;;;;;;;;;;19.73;55.72;95904.25;10474249;28;1794;-77
2022/07/02 19:09:45;;;;;;;;;;;;;;;19.57;56.81;95902.03;10476376;28;1975;-77
2022/07/02 19:14:49;;;;;;;;;;;;;;;19.38;57.82;95910.63;10466583;28;1904;-77
2022/07/02 19:19:53;;;;;;;;;;;;;;;19.29;58.54;95898.16;10478348;28;1823;-76
2022/07/02 19:24:57;;;;;;;;;;;;;;;19.10;59.97;95906.72;10471970;28;1689;-75
2022/07/02 19:35:21;;;;;;;;;;;;;;;18.84;62.17;95906.78;10469060;28;2016;-77
2022/07/02 19:40:25;;;;;;;;;;;;;;;18.80;62.69;95909.31;10471748;28;2021;-77
2022/07/02 19:45:33;;;;;;;;;;;;;;;18.68;63.51;95909.16;10470983;28;1782;-77
2022/07/02 19:50:36;;;;;;;;;;;;;;;18.59;64.54;95905.63;10470674;28;1906;-77
2022/07/02 19:55:40;;;;;;;;;;;;;;;18.37;66.15;95907.38;10472577;28;1784;-76
2022/07/02 20:00:44;;;;;;;;;;;;;;;18.40;66.34;95902.44;10475094;28;1816;-76
2022/07/02 20:05:48;;;;;;;;;;;;;;;18.27;67.10;95901.47;10470782;28;1825;-77
2022/07/02 20:10:52;;;;;;;;;;;;;;;18.25;67.19;95901.78;10470401;28;1918;-76
2022/07/02 20:15:56;;;;;;;;;;;;;;;18.11;68.22;95898.41;10468842;28;1862;-77
2022/07/02 20:20:59;;;;;;;;;;;;;;;18.00;69.24;95897.09;10473519;28;1798;-76
2022/07/02 20:26:03;;;;;;;;;;;;;;;17.87;69.90;95892.59;10478411;28;1984;-76
2022/07/02 20:31:07;;;;;;;;;;;;;;;17.70;71.10;95896.88;10466214;28;1968;-76
2022/07/02 20:36:16;;;;;;;;;;;;;;;17.68;71.89;95901.81;10470456;28;1873;-75
2022/07/02 20:41:20;;;;;;;;;;;;;;;17.58;72.81;95898.59;10475852;28;1860;-75
2022/07/02 20:46:24;;;;;;;;;;;;;;;17.42;73.95;95909.06;10478653;28;1888;-74
2022/07/02 20:51:32;;;;;;;;;;;;;;;17.29;74.85;95911.56;10471713;28;1983;-75
2022/07/02 20:56:36;;;;;;;;;;;;;;;17.21;76.56;95909.63;10475255;28;1842;-75
2022/07/02 21:01:40;;;;;;;;;;;;;;;17.25;76.26;95916.03;10476186;28;1899;-76
2022/07/02 21:06:43;;;;;;;;;;;;;;;17.12;77.20;95916.94;10472937;28;1818;-75
2022/07/02 21:11:47;;;;;;;;;;;;;;;17.03;78.59;95918.78;10470693;28;1979;-77
2022/07/02 21:16:51;;;;;;;;;;;;;;;17.08;78.67;95926.81;10467273;28;1797;-77
2022/07/02 21:21:55;;;;;;;;;;;;;;;16.95;79.30;95925.78;10477856;28;1776;-77
2022/07/02 21:26:58;;;;;;;;;;;;;;;17.01;79.56;95921.03;10469890;28;1773;-77
2022/07/02 21:32:02;;;;;;;;;;;;;;;16.91;80.42;95922.06;10474189;28;1918;-76
2022/07/02 21:37:25;;;;;;;;;;;;;;;16.83;80.59;95928.25;10473919;28;1737;-75
2022/07/02 21:42:29;;;;;;;;;;;;;;;16.90;80.13;95927.81;10473335;28;1825;-76
2022/07/02 21:47:34;;;;;;;;;;;;;;;16.73;81.57;95940.19;10471349;28;1869;-74
2022/07/02 21:52:37;;;;;;;;;;;;;;;16.53;83.70;95942.53;10477211;28;1926;-75
2022/07/02 21:57:40;;;;;;;;;;;;;;;16.33;86.10;95932.94;10476632;28;1835;-74
2022/07/02 22:02:44;;;;;;;;;;;;;;;16.13;87.85;95940.44;10476961;28;1720;-74
2022/07/02 22:07:47;;;;;;;;;;;;;;;16.09;89.78;95934.00;10483560;28;1905;-73
2022/07/02 22:12:51;;;;;;;;;;;;;;;16.12;90.35;95933.41;10481630;28;1921;-74
2022/07/02 22:17:54;;;;;;;;;;;;;;;16.20;89.75;95929.97;10477985;28;1738;-75
2022/07/02 22:22:57;;;;;;;;;;;;;;;16.15;89.43;95935.50;10474470;28;1877;-75
2022/07/02 22:28:01;;;;;;;;;;;;;;;16.10;90.66;95927.50;10474812;28;1834;-76
2022/07/02 22:33:04;;;;;;;;;;;;;;;16.08;90.72;95921.56;10475203;28;1914;-74
2022/07/02 22:38:07;;;;;;;;;;;;;;;16.17;89.81;95919.75;10470100;28;1802;-75
2022/07/02 22:43:11;;;;;;;;;;;;;;;16.09;90.50;95923.16;10471362;28;1869;-74
2022/07/02 22:48:15;;;;;;;;;;;;;;;16.01;90.70;95920.38;10475745;28;3368;-76
2022/07/02 22:53:18;;;;;;;;;;;;;;;15.89;90.71;95918.97;10469076;28;1984;-74
2022/07/02 22:58:22;;;;;;;;;;;;;;;15.84;92.59;95923.69;10466146;28;1876;-74
2022/07/02 23:03:25;;;;;;;;;;;;;;;15.91;91.38;95915.97;10471611;28;1778;-76
2022/07/02 23:08:29;;;;;;;;;;;;;;;16.03;91.83;95924.41;10472232;28;1945;-75
2022/07/02 23:13:32;;;;;;;;;;;;;;;16.31;91.17;95916.19;10468593;28;1933;-75
2022/07/02 23:18:36;;;;;;;;;;;;;;;16.36;91.19;95926.94;10476614;28;1827;-73
2022/07/02 23:23:40;;;;;;;;;;;;;;;16.36;91.36;95922.31;10468685;28;1824;-75
2022/07/02 23:28:45;;;;;;;;;;;;;;;16.33;91.12;95917.47;10465264;28;1815;-76
2022/07/02 23:33:50;;;;;;;;;;;;;;;16.18;91.44;95924.06;10466396;28;1994;-76
2022/07/02 23:38:54;;;;;;;;;;;;;;;16.08;93.95;95918.03;10470171;28;1852;-77
2022/07/02 23:43:58;;;;;;;;;;;;;;;15.89;95.84;95920.88;10465700;28;1869;-75
2022/07/02 23:49:02;;;;;;;;;;;;;;;15.91;96.92;95916.78;10469457;28;1922;-75
2022/07/02 23:54:05;;;;;;;;;;;;;;;15.97;96.85;95909.34;10470697;28;1844;-75
2022/07/02 23:59:08;;;;;;;;;;;;;;;16.00;95.32;95925.00;10468648;28;1796;-75
